Terminal Aerodrome Forecast
Issued by NWS

Home | Current Version | Previous Version | Graphics & Text | Print | Product List | Glossary On
Versions: 1 2 3 4 5 6 7 8 9 10 11 12 13 14 15 16 17 18 19 20 21 22
328
FTUS43 KGRB 231613 AAA
TAFAUW
TAF AMD
KAUW 231613Z 2316/2412 35010G15KT P6SM OVC020
     FM240000 04008KT P6SM SCT020 BKN100
     FM240500 06009G15KT P6SM -SN OVC025
     FM240700 06011G19KT 4SM -SN OVC015
     FM241000 06013G25KT 1 1/2SM -SN OVC010=

USA.gov is the U.S. government's official web portal to all federal, state and local government web resources and services.